sensor_id;sensor_type;location;lat;lon;timestamp;P1;durP1;ratioP1;P2;durP2;ratioP2
70233;SDS011;57622;42.630;23.378;2022-08-06T00:01:32;10.93;;;4.00;;
70233;SDS011;57622;42.630;23.378;2022-08-06T00:03:57;8.85;;;3.97;;
70233;SDS011;57622;42.630;23.378;2022-08-06T00:06:23;6.88;;;3.85;;
70233;SDS011;57622;42.630;23.378;2022-08-06T00:08:48;10.88;;;4.25;;
70233;SDS011;57622;42.630;23.378;2022-08-06T00:11:14;8.95;;;3.88;;
70233;SDS011;57622;42.630;23.378;2022-08-06T00:13:39;8.25;;;3.92;;
70233;SDS011;57622;42.630;23.378;2022-08-06T00:16:05;8.32;;;3.80;;
70233;SDS011;57622;42.630;23.378;2022-08-06T00:18:30;10.32;;;4.13;;
70233;SDS011;57622;42.630;23.378;2022-08-06T00:20:56;7.40;;;3.50;;
70233;SDS011;57622;42.630;23.378;2022-08-06T00:23:21;6.65;;;3.88;;
70233;SDS011;57622;42.630;23.378;2022-08-06T00:25:47;8.07;;;3.92;;
70233;SDS011;57622;42.630;23.378;2022-08-06T00:28:12;8.00;;;4.07;;
70233;SDS011;57622;42.630;23.378;2022-08-06T00:30:38;7.32;;;3.72;;
70233;SDS011;57622;42.630;23.378;2022-08-06T00:33:03;7.75;;;3.63;;
70233;SDS011;57622;42.630;23.378;2022-08-06T00:35:28;8.27;;;3.97;;
70233;SDS011;57622;42.630;23.378;2022-08-06T00:37:54;7.60;;;4.35;;
70233;SDS011;57622;42.630;23.378;2022-08-06T00:40:21;8.43;;;4.38;;
70233;SDS011;57622;42.630;23.378;2022-08-06T00:42:47;11.75;;;4.28;;
70233;SDS011;57622;42.630;23.378;2022-08-06T00:45:12;8.77;;;4.20;;
70233;SDS011;57622;42.630;23.378;2022-08-06T00:47:38;10.93;;;4.63;;
70233;SDS011;57622;42.630;23.378;2022-08-06T00:50:04;9.13;;;4.20;;
70233;SDS011;57622;42.630;23.378;2022-08-06T00:52:30;9.70;;;4.70;;
70233;SDS011;57622;42.630;23.378;2022-08-06T00:54:55;8.23;;;4.50;;
70233;SDS011;57622;42.630;23.378;2022-08-06T00:57:21;8.77;;;4.30;;
70233;SDS011;57622;42.630;23.378;2022-08-06T00:59:46;9.02;;;4.13;;
70233;SDS011;57622;42.630;23.378;2022-08-06T01:02:12;8.38;;;4.20;;
70233;SDS011;57622;42.630;23.378;2022-08-06T01:04:38;10.48;;;4.50;;
70233;SDS011;57622;42.630;23.378;2022-08-06T01:07:03;6.88;;;3.95;;
70233;SDS011;57622;42.630;23.378;2022-08-06T01:09:29;9.20;;;4.00;;
70233;SDS011;57622;42.630;23.378;2022-08-06T01:11:54;7.15;;;3.80;;
70233;SDS011;57622;42.630;23.378;2022-08-06T01:14:20;7.28;;;3.78;;
70233;SDS011;57622;42.630;23.378;2022-08-06T01:17:21;7.10;;;3.80;;
70233;SDS011;57622;42.630;23.378;2022-08-06T01:19:50;7.95;;;3.33;;
70233;SDS011;57622;42.630;23.378;2022-08-06T01:30:40;10.57;;;3.90;;
70233;SDS011;57622;42.630;23.378;2022-08-06T01:33:16;7.60;;;4.28;;
70233;SDS011;57622;42.630;23.378;2022-08-06T01:35:49;7.80;;;3.92;;
70233;SDS011;57622;42.630;23.378;2022-08-06T01:38:23;7.55;;;3.90;;
70233;SDS011;57622;42.630;23.378;2022-08-06T01:40:55;7.00;;;3.83;;
70233;SDS011;57622;42.630;23.378;2022-08-06T01:43:25;9.38;;;4.00;;
70233;SDS011;57622;42.630;23.378;2022-08-06T01:45:53;8.60;;;4.07;;
70233;SDS011;57622;42.630;23.378;2022-08-06T01:48:21;7.20;;;3.95;;
70233;SDS011;57622;42.630;23.378;2022-08-06T01:50:50;8.00;;;4.28;;
70233;SDS011;57622;42.630;23.378;2022-08-06T01:53:23;7.88;;;4.30;;
70233;SDS011;57622;42.630;23.378;2022-08-06T01:55:56;8.77;;;4.00;;
70233;SDS011;57622;42.630;23.378;2022-08-06T01:58:24;8.07;;;4.32;;
70233;SDS011;57622;42.630;23.378;2022-08-06T02:00:54;8.25;;;4.10;;
70233;SDS011;57622;42.630;23.378;2022-08-06T02:03:22;7.50;;;4.10;;
70233;SDS011;57622;42.630;23.378;2022-08-06T02:05:53;8.05;;;4.35;;
70233;SDS011;57622;42.630;23.378;2022-08-06T02:08:22;7.03;;;3.97;;
70233;SDS011;57622;42.630;23.378;2022-08-06T02:10:51;8.50;;;4.25;;
70233;SDS011;57622;42.630;23.378;2022-08-06T02:13:18;9.57;;;4.40;;
70233;SDS011;57622;42.630;23.378;2022-08-06T02:15:45;8.88;;;4.38;;
70233;SDS011;57622;42.630;23.378;2022-08-06T02:18:12;9.00;;;4.30;;
70233;SDS011;57622;42.630;23.378;2022-08-06T02:20:42;9.45;;;4.60;;
70233;SDS011;57622;42.630;23.378;2022-08-06T02:25:38;10.33;;;4.50;;
70233;SDS011;57622;42.630;23.378;2022-08-06T02:28:05;7.68;;;4.35;;
70233;SDS011;57622;42.630;23.378;2022-08-06T02:30:35;9.30;;;4.72;;
70233;SDS011;57622;42.630;23.378;2022-08-06T02:33:04;7.78;;;4.20;;
70233;SDS011;57622;42.630;23.378;2022-08-06T02:35:30;8.45;;;4.32;;
70233;SDS011;57622;42.630;23.378;2022-08-06T02:38:05;8.50;;;4.18;;
70233;SDS011;57622;42.630;23.378;2022-08-06T02:40:35;8.80;;;4.38;;
70233;SDS011;57622;42.630;23.378;2022-08-06T02:43:28;7.30;;;4.15;;
70233;SDS011;57622;42.630;23.378;2022-08-06T02:46:21;7.82;;;4.40;;
70233;SDS011;57622;42.630;23.378;2022-08-06T02:49:00;9.00;;;4.70;;
70233;SDS011;57622;42.630;23.378;2022-08-06T02:51:39;10.07;;;4.70;;
70233;SDS011;57622;42.630;23.378;2022-08-06T02:54:14;8.63;;;4.50;;
70233;SDS011;57622;42.630;23.378;2022-08-06T02:56:45;8.57;;;4.32;;
70233;SDS011;57622;42.630;23.378;2022-08-06T02:59:13;8.40;;;4.07;;
70233;SDS011;57622;42.630;23.378;2022-08-06T03:01:43;7.63;;;4.20;;
70233;SDS011;57622;42.630;23.378;2022-08-06T03:04:14;7.10;;;3.78;;
70233;SDS011;57622;42.630;23.378;2022-08-06T03:06:41;8.05;;;4.20;;
70233;SDS011;57622;42.630;23.378;2022-08-06T03:09:10;7.90;;;4.28;;
70233;SDS011;57622;42.630;23.378;2022-08-06T03:11:37;7.47;;;4.10;;
70233;SDS011;57622;42.630;23.378;2022-08-06T03:14:06;8.02;;;4.00;;
70233;SDS011;57622;42.630;23.378;2022-08-06T03:16:36;11.02;;;4.25;;
70233;SDS011;57622;42.630;23.378;2022-08-06T03:19:03;8.40;;;4.15;;
70233;SDS011;57622;42.630;23.378;2022-08-06T03:21:29;9.43;;;4.25;;
70233;SDS011;57622;42.630;23.378;2022-08-06T03:23:57;10.05;;;4.25;;
70233;SDS011;57622;42.630;23.378;2022-08-06T03:26:24;7.97;;;4.05;;
70233;SDS011;57622;42.630;23.378;2022-08-06T03:28:51;10.55;;;4.43;;
70233;SDS011;57622;42.630;23.378;2022-08-06T03:33:46;9.23;;;4.38;;
70233;SDS011;57622;42.630;23.378;2022-08-06T03:36:12;9.63;;;4.35;;
70233;SDS011;57622;42.630;23.378;2022-08-06T03:38:39;9.50;;;3.92;;
70233;SDS011;57622;42.630;23.378;2022-08-06T03:41:09;8.98;;;4.47;;
70233;SDS011;57622;42.630;23.378;2022-08-06T03:43:36;9.02;;;4.45;;
70233;SDS011;57622;42.630;23.378;2022-08-06T03:46:03;7.88;;;4.55;;
70233;SDS011;57622;42.630;23.378;2022-08-06T03:48:35;8.57;;;4.63;;
70233;SDS011;57622;42.630;23.378;2022-08-06T03:51:05;8.88;;;4.60;;
70233;SDS011;57622;42.630;23.378;2022-08-06T03:53:41;10.15;;;4.93;;
70233;SDS011;57622;42.630;23.378;2022-08-06T03:56:08;11.63;;;4.93;;
70233;SDS011;57622;42.630;23.378;2022-08-06T03:58:37;8.73;;;4.22;;
70233;SDS011;57622;42.630;23.378;2022-08-06T04:01:06;13.77;;;5.03;;
70233;SDS011;57622;42.630;23.378;2022-08-06T04:03:36;10.35;;;5.28;;
70233;SDS011;57622;42.630;23.378;2022-08-06T04:06:02;11.52;;;4.72;;
70233;SDS011;57622;42.630;23.378;2022-08-06T04:08:29;8.85;;;4.90;;
70233;SDS011;57622;42.630;23.378;2022-08-06T04:10:56;9.00;;;4.70;;
70233;SDS011;57622;42.630;23.378;2022-08-06T04:13:23;9.63;;;5.00;;
70233;SDS011;57622;42.630;23.378;2022-08-06T04:15:49;9.38;;;4.88;;
70233;SDS011;57622;42.630;23.378;2022-08-06T04:18:18;10.82;;;4.82;;
70233;SDS011;57622;42.630;23.378;2022-08-06T04:20:46;9.27;;;4.68;;
70233;SDS011;57622;42.630;23.378;2022-08-06T04:23:14;8.32;;;4.47;;
70233;SDS011;57622;42.630;23.378;2022-08-06T04:26:01;10.23;;;4.55;;
70233;SDS011;57622;42.630;23.378;2022-08-06T04:28:27;10.10;;;4.65;;
70233;SDS011;57622;42.630;23.378;2022-08-06T04:30:55;10.93;;;4.50;;
70233;SDS011;57622;42.630;23.378;2022-08-06T04:33:23;10.88;;;4.80;;
70233;SDS011;57622;42.630;23.378;2022-08-06T04:35:51;8.18;;;4.78;;
70233;SDS011;57622;42.630;23.378;2022-08-06T04:38:18;7.28;;;4.38;;
70233;SDS011;57622;42.630;23.378;2022-08-06T04:40:46;10.82;;;4.72;;
70233;SDS011;57622;42.630;23.378;2022-08-06T04:43:13;11.05;;;4.78;;
70233;SDS011;57622;42.630;23.378;2022-08-06T04:45:40;8.52;;;4.38;;
70233;SDS011;57622;42.630;23.378;2022-08-06T04:48:10;12.95;;;4.78;;
70233;SDS011;57622;42.630;23.378;2022-08-06T04:50:37;8.38;;;4.35;;
70233;SDS011;57622;42.630;23.378;2022-08-06T04:53:12;9.02;;;4.82;;
70233;SDS011;57622;42.630;23.378;2022-08-06T04:55:40;9.07;;;4.63;;
70233;SDS011;57622;42.630;23.378;2022-08-06T04:58:07;9.95;;;5.10;;
70233;SDS011;57622;42.630;23.378;2022-08-06T05:00:36;10.52;;;5.47;;
70233;SDS011;57622;42.630;23.378;2022-08-06T05:03:05;12.88;;;4.88;;
70233;SDS011;57622;42.630;23.378;2022-08-06T05:05:34;13.00;;;5.50;;
70233;SDS011;57622;42.630;23.378;2022-08-06T05:08:04;10.95;;;5.25;;
70233;SDS011;57622;42.630;23.378;2022-08-06T05:10:37;11.07;;;5.60;;
70233;SDS011;57622;42.630;23.378;2022-08-06T05:13:10;8.65;;;5.25;;
70233;SDS011;57622;42.630;23.378;2022-08-06T05:15:39;12.82;;;5.22;;
70233;SDS011;57622;42.630;23.378;2022-08-06T05:20:47;12.48;;;5.65;;
70233;SDS011;57622;42.630;23.378;2022-08-06T05:23:21;9.32;;;5.22;;
70233;SDS011;57622;42.630;23.378;2022-08-06T05:25:51;10.00;;;5.70;;
70233;SDS011;57622;42.630;23.378;2022-08-06T05:28:17;9.85;;;4.97;;
70233;SDS011;57622;42.630;23.378;2022-08-06T05:30:46;11.88;;;5.53;;
70233;SDS011;57622;42.630;23.378;2022-08-06T05:33:27;9.50;;;5.10;;
70233;SDS011;57622;42.630;23.378;2022-08-06T05:35:57;11.75;;;5.80;;
70233;SDS011;57622;42.630;23.378;2022-08-06T05:38:23;10.52;;;5.60;;
70233;SDS011;57622;42.630;23.378;2022-08-06T05:40:51;10.52;;;5.78;;
70233;SDS011;57622;42.630;23.378;2022-08-06T05:43:17;10.88;;;5.53;;
70233;SDS011;57622;42.630;23.378;2022-08-06T05:45:42;10.65;;;5.90;;
70233;SDS011;57622;42.630;23.378;2022-08-06T05:48:09;11.05;;;5.68;;
70233;SDS011;57622;42.630;23.378;2022-08-06T05:50:39;12.38;;;5.75;;
70233;SDS011;57622;42.630;23.378;2022-08-06T05:53:12;9.93;;;5.57;;
70233;SDS011;57622;42.630;23.378;2022-08-06T05:55:48;9.55;;;5.50;;
70233;SDS011;57622;42.630;23.378;2022-08-06T05:58:41;10.95;;;5.75;;
70233;SDS011;57622;42.630;23.378;2022-08-06T06:01:06;10.90;;;5.80;;
70233;SDS011;57622;42.630;23.378;2022-08-06T06:03:34;9.60;;;4.88;;
70233;SDS011;57622;42.630;23.378;2022-08-06T06:06:02;10.07;;;5.60;;
70233;SDS011;57622;42.630;23.378;2022-08-06T06:08:28;9.57;;;5.30;;
70233;SDS011;57622;42.630;23.378;2022-08-06T06:10:54;8.88;;;5.22;;
70233;SDS011;57622;42.630;23.378;2022-08-06T06:13:22;10.25;;;5.47;;
70233;SDS011;57622;42.630;23.378;2022-08-06T06:27:19;10.77;;;5.60;;
70233;SDS011;57622;42.630;23.378;2022-08-06T06:29:59;11.38;;;5.43;;
70233;SDS011;57622;42.630;23.378;2022-08-06T06:35:02;8.98;;;5.80;;
70233;SDS011;57622;42.630;23.378;2022-08-06T06:45:30;12.35;;;5.80;;
70233;SDS011;57622;42.630;23.378;2022-08-06T06:48:37;11.75;;;5.85;;
70233;SDS011;57622;42.630;23.378;2022-08-06T06:51:04;12.25;;;6.28;;
70233;SDS011;57622;42.630;23.378;2022-08-06T06:53:37;14.93;;;7.07;;
70233;SDS011;57622;42.630;23.378;2022-08-06T06:56:06;11.73;;;6.03;;
70233;SDS011;57622;42.630;23.378;2022-08-06T06:58:37;11.27;;;6.05;;
70233;SDS011;57622;42.630;23.378;2022-08-06T07:01:08;12.18;;;6.38;;
70233;SDS011;57622;42.630;23.378;2022-08-06T07:03:36;15.63;;;6.32;;
70233;SDS011;57622;42.630;23.378;2022-08-06T07:06:03;12.00;;;5.82;;
70233;SDS011;57622;42.630;23.378;2022-08-06T07:08:33;14.93;;;5.68;;
70233;SDS011;57622;42.630;23.378;2022-08-06T07:11:02;9.88;;;5.38;;
70233;SDS011;57622;42.630;23.378;2022-08-06T07:13:30;10.90;;;5.35;;
70233;SDS011;57622;42.630;23.378;2022-08-06T07:15:57;13.00;;;5.53;;
70233;SDS011;57622;42.630;23.378;2022-08-06T07:18:24;11.10;;;5.63;;
70233;SDS011;57622;42.630;23.378;2022-08-06T07:20:51;11.05;;;5.70;;
70233;SDS011;57622;42.630;23.378;2022-08-06T07:23:18;11.68;;;5.70;;
70233;SDS011;57622;42.630;23.378;2022-08-06T07:25:46;12.60;;;6.47;;
70233;SDS011;57622;42.630;23.378;2022-08-06T07:28:15;11.27;;;6.20;;
70233;SDS011;57622;42.630;23.378;2022-08-06T07:30:42;13.27;;;6.10;;
70233;SDS011;57622;42.630;23.378;2022-08-06T07:33:09;11.20;;;6.30;;
70233;SDS011;57622;42.630;23.378;2022-08-06T07:35:36;12.68;;;5.97;;
70233;SDS011;57622;42.630;23.378;2022-08-06T07:38:06;11.60;;;5.70;;
70233;SDS011;57622;42.630;23.378;2022-08-06T07:43:13;13.60;;;5.45;;
70233;SDS011;57622;42.630;23.378;2022-08-06T07:45:42;10.57;;;5.90;;
70233;SDS011;57622;42.630;23.378;2022-08-06T07:48:09;14.68;;;6.75;;
70233;SDS011;57622;42.630;23.378;2022-08-06T07:50:38;16.48;;;6.80;;
70233;SDS011;57622;42.630;23.378;2022-08-06T07:53:06;12.30;;;6.43;;
70233;SDS011;57622;42.630;23.378;2022-08-06T07:55:34;13.20;;;5.85;;
70233;SDS011;57622;42.630;23.378;2022-08-06T07:58:01;13.32;;;6.10;;
70233;SDS011;57622;42.630;23.378;2022-08-06T08:00:28;9.73;;;5.70;;
70233;SDS011;57622;42.630;23.378;2022-08-06T08:02:54;11.48;;;5.88;;
70233;SDS011;57622;42.630;23.378;2022-08-06T08:05:39;11.95;;;6.00;;
70233;SDS011;57622;42.630;23.378;2022-08-06T08:08:25;11.00;;;6.13;;
70233;SDS011;57622;42.630;23.378;2022-08-06T08:10:51;12.07;;;5.72;;
70233;SDS011;57622;42.630;23.378;2022-08-06T08:13:18;9.85;;;5.85;;
70233;SDS011;57622;42.630;23.378;2022-08-06T08:15:46;10.30;;;6.10;;
70233;SDS011;57622;42.630;23.378;2022-08-06T08:18:13;10.57;;;5.40;;
70233;SDS011;57622;42.630;23.378;2022-08-06T08:20:38;12.30;;;6.10;;
70233;SDS011;57622;42.630;23.378;2022-08-06T08:23:07;11.33;;;5.87;;
70233;SDS011;57622;42.630;23.378;2022-08-06T08:25:34;13.18;;;5.38;;
70233;SDS011;57622;42.630;23.378;2022-08-06T08:27:59;11.52;;;5.72;;
70233;SDS011;57622;42.630;23.378;2022-08-06T08:30:25;10.02;;;5.53;;
70233;SDS011;57622;42.630;23.378;2022-08-06T08:32:51;11.60;;;4.63;;
70233;SDS011;57622;42.630;23.378;2022-08-06T08:35:16;11.93;;;5.47;;
70233;SDS011;57622;42.630;23.378;2022-08-06T08:37:42;12.32;;;5.03;;
70233;SDS011;57622;42.630;23.378;2022-08-06T08:40:08;10.80;;;4.75;;
70233;SDS011;57622;42.630;23.378;2022-08-06T08:42:40;10.75;;;4.90;;
70233;SDS011;57622;42.630;23.378;2022-08-06T08:45:14;10.63;;;4.00;;
70233;SDS011;57622;42.630;23.378;2022-08-06T08:47:44;7.38;;;3.92;;
70233;SDS011;57622;42.630;23.378;2022-08-06T08:50:14;9.43;;;3.60;;
70233;SDS011;57622;42.630;23.378;2022-08-06T08:52:43;9.30;;;4.05;;
70233;SDS011;57622;42.630;23.378;2022-08-06T08:55:12;8.65;;;3.80;;
70233;SDS011;57622;42.630;23.378;2022-08-06T08:57:41;8.52;;;3.40;;
70233;SDS011;57622;42.630;23.378;2022-08-06T09:00:07;10.48;;;3.67;;
70233;SDS011;57622;42.630;23.378;2022-08-06T09:02:33;8.98;;;3.53;;
70233;SDS011;57622;42.630;23.378;2022-08-06T09:05:02;14.82;;;3.95;;
70233;SDS011;57622;42.630;23.378;2022-08-06T09:07:27;8.32;;;3.95;;
70233;SDS011;57622;42.630;23.378;2022-08-06T09:09:53;7.07;;;3.35;;
70233;SDS011;57622;42.630;23.378;2022-08-06T09:12:20;11.73;;;3.63;;
70233;SDS011;57622;42.630;23.378;2022-08-06T09:14:47;8.80;;;4.07;;
70233;SDS011;57622;42.630;23.378;2022-08-06T09:17:12;8.00;;;3.72;;
70233;SDS011;57622;42.630;23.378;2022-08-06T09:19:38;9.20;;;3.97;;
70233;SDS011;57622;42.630;23.378;2022-08-06T09:22:04;9.02;;;3.95;;
70233;SDS011;57622;42.630;23.378;2022-08-06T09:24:30;9.10;;;4.07;;
70233;SDS011;57622;42.630;23.378;2022-08-06T09:27:12;11.48;;;3.97;;
70233;SDS011;57622;42.630;23.378;2022-08-06T09:30:13;9.00;;;3.80;;
70233;SDS011;57622;42.630;23.378;2022-08-06T09:32:39;9.00;;;3.72;;
70233;SDS011;57622;42.630;23.378;2022-08-06T09:35:22;8.48;;;3.40;;
70233;SDS011;57622;42.630;23.378;2022-08-06T09:37:59;7.07;;;3.42;;
70233;SDS011;57622;42.630;23.378;2022-08-06T09:40:26;10.32;;;3.70;;
70233;SDS011;57622;42.630;23.378;2022-08-06T09:42:52;10.32;;;3.65;;
70233;SDS011;57622;42.630;23.378;2022-08-06T09:45:21;8.30;;;3.60;;
70233;SDS011;57622;42.630;23.378;2022-08-06T09:47:48;7.22;;;3.35;;
70233;SDS011;57622;42.630;23.378;2022-08-06T09:50:35;7.82;;;3.53;;
70233;SDS011;57622;42.630;23.378;2022-08-06T09:53:07;8.55;;;3.70;;
70233;SDS011;57622;42.630;23.378;2022-08-06T09:55:33;8.82;;;3.63;;
70233;SDS011;57622;42.630;23.378;2022-08-06T09:58:00;8.05;;;3.53;;
70233;SDS011;57622;42.630;23.378;2022-08-06T10:00:30;6.10;;;3.30;;
70233;SDS011;57622;42.630;23.378;2022-08-06T10:03:01;7.00;;;3.22;;
70233;SDS011;57622;42.630;23.378;2022-08-06T10:05:29;6.20;;;3.08;;
70233;SDS011;57622;42.630;23.378;2022-08-06T10:10:51;6.90;;;3.35;;
70233;SDS011;57622;42.630;23.378;2022-08-06T10:13:21;10.13;;;3.47;;
70233;SDS011;57622;42.630;23.378;2022-08-06T10:15:49;7.35;;;3.40;;
70233;SDS011;57622;42.630;23.378;2022-08-06T10:21:01;9.35;;;3.78;;
70233;SDS011;57622;42.630;23.378;2022-08-06T10:23:30;7.22;;;3.30;;
70233;SDS011;57622;42.630;23.378;2022-08-06T10:25:57;7.25;;;3.55;;
70233;SDS011;57622;42.630;23.378;2022-08-06T10:28:23;7.20;;;3.40;;
70233;SDS011;57622;42.630;23.378;2022-08-06T10:30:52;7.65;;;3.58;;
70233;SDS011;57622;42.630;23.378;2022-08-06T10:33:19;8.82;;;3.28;;
70233;SDS011;57622;42.630;23.378;2022-08-06T10:35:46;7.20;;;3.17;;
70233;SDS011;57622;42.630;23.378;2022-08-06T10:38:14;7.28;;;3.65;;
70233;SDS011;57622;42.630;23.378;2022-08-06T10:40:42;9.80;;;3.58;;
70233;SDS011;57622;42.630;23.378;2022-08-06T10:43:09;8.32;;;3.50;;
70233;SDS011;57622;42.630;23.378;2022-08-06T10:45:35;5.88;;;3.05;;
70233;SDS011;57622;42.630;23.378;2022-08-06T10:48:03;8.70;;;3.33;;
70233;SDS011;57622;42.630;23.378;2022-08-06T10:50:30;7.88;;;3.05;;
70233;SDS011;57622;42.630;23.378;2022-08-06T10:52:57;6.35;;;3.40;;
70233;SDS011;57622;42.630;23.378;2022-08-06T10:55:23;8.10;;;3.30;;
70233;SDS011;57622;42.630;23.378;2022-08-06T10:57:48;10.15;;;3.38;;
70233;SDS011;57622;42.630;23.378;2022-08-06T11:00:14;7.68;;;3.15;;
70233;SDS011;57622;42.630;23.378;2022-08-06T11:02:51;8.25;;;3.38;;
70233;SDS011;57622;42.630;23.378;2022-08-06T11:05:32;7.40;;;3.50;;
70233;SDS011;57622;42.630;23.378;2022-08-06T11:15:53;9.38;;;3.40;;
70233;SDS011;57622;42.630;23.378;2022-08-06T11:18:19;6.28;;;3.17;;
70233;SDS011;57622;42.630;23.378;2022-08-06T11:20:46;7.43;;;3.60;;
70233;SDS011;57622;42.630;23.378;2022-08-06T11:28:56;8.50;;;3.53;;
70233;SDS011;57622;42.630;23.378;2022-08-06T11:31:34;14.07;;;6.38;;
70233;SDS011;57622;42.630;23.378;2022-08-06T11:34:03;12.70;;;6.53;;
70233;SDS011;57622;42.630;23.378;2022-08-06T11:39:13;8.07;;;3.20;;
70233;SDS011;57622;42.630;23.378;2022-08-06T11:44:13;6.53;;;3.20;;
70233;SDS011;57622;42.630;23.378;2022-08-06T11:46:47;11.00;;;5.30;;
70233;SDS011;57622;42.630;23.378;2022-08-06T11:49:14;10.30;;;3.90;;
70233;SDS011;57622;42.630;23.378;2022-08-06T11:51:52;8.90;;;5.45;;
70233;SDS011;57622;42.630;23.378;2022-08-06T11:59:38;14.13;;;10.30;;
70233;SDS011;57622;42.630;23.378;2022-08-06T12:02:10;15.68;;;9.35;;
70233;SDS011;57622;42.630;23.378;2022-08-06T12:07:25;12.10;;;6.40;;
70233;SDS011;57622;42.630;23.378;2022-08-06T12:15:04;9.88;;;3.90;;
70233;SDS011;57622;42.630;23.378;2022-08-06T12:23:00;8.80;;;4.07;;
70233;SDS011;57622;42.630;23.378;2022-08-06T12:25:34;12.20;;;5.15;;
70233;SDS011;57622;42.630;23.378;2022-08-06T12:28:02;7.82;;;4.00;;
70233;SDS011;57622;42.630;23.378;2022-08-06T12:30:44;7.20;;;3.90;;
70233;SDS011;57622;42.630;23.378;2022-08-06T12:33:14;7.90;;;3.95;;
70233;SDS011;57622;42.630;23.378;2022-08-06T12:35:59;7.22;;;3.63;;
70233;SDS011;57622;42.630;23.378;2022-08-06T12:38:29;12.38;;;7.65;;
70233;SDS011;57622;42.630;23.378;2022-08-06T12:43:30;9.85;;;4.90;;
70233;SDS011;57622;42.630;23.378;2022-08-06T12:45:57;10.15;;;4.80;;
70233;SDS011;57622;42.630;23.378;2022-08-06T12:48:24;9.93;;;5.07;;
70233;SDS011;57622;42.630;23.378;2022-08-06T12:50:50;8.80;;;3.90;;
70233;SDS011;57622;42.630;23.378;2022-08-06T12:53:25;7.88;;;3.88;;
70233;SDS011;57622;42.630;23.378;2022-08-06T12:55:51;8.40;;;3.88;;
70233;SDS011;57622;42.630;23.378;2022-08-06T12:58:20;9.05;;;4.68;;
70233;SDS011;57622;42.630;23.378;2022-08-06T13:00:55;7.25;;;4.15;;
70233;SDS011;57622;42.630;23.378;2022-08-06T13:03:23;10.02;;;4.35;;
70233;SDS011;57622;42.630;23.378;2022-08-06T13:05:50;8.55;;;4.10;;
70233;SDS011;57622;42.630;23.378;2022-08-06T13:08:18;7.70;;;4.22;;
70233;SDS011;57622;42.630;23.378;2022-08-06T13:10:48;10.30;;;4.10;;
70233;SDS011;57622;42.630;23.378;2022-08-06T13:13:17;8.23;;;3.88;;
70233;SDS011;57622;42.630;23.378;2022-08-06T13:15:47;10.15;;;3.60;;
70233;SDS011;57622;42.630;23.378;2022-08-06T13:18:24;7.65;;;3.60;;
70233;SDS011;57622;42.630;23.378;2022-08-06T13:20:50;12.07;;;5.20;;
70233;SDS011;57622;42.630;23.378;2022-08-06T13:23:26;8.23;;;4.30;;
70233;SDS011;57622;42.630;23.378;2022-08-06T13:26:16;8.85;;;4.40;;
70233;SDS011;57622;42.630;23.378;2022-08-06T13:31:32;7.88;;;4.50;;
70233;SDS011;57622;42.630;23.378;2022-08-06T13:34:19;10.65;;;5.07;;
70233;SDS011;57622;42.630;23.378;2022-08-06T13:36:45;9.00;;;3.90;;
70233;SDS011;57622;42.630;23.378;2022-08-06T13:39:28;8.50;;;3.90;;
70233;SDS011;57622;42.630;23.378;2022-08-06T13:42:05;10.80;;;4.13;;
70233;SDS011;57622;42.630;23.378;2022-08-06T13:47:00;8.38;;;3.83;;
70233;SDS011;57622;42.630;23.378;2022-08-06T13:49:27;7.97;;;3.50;;
70233;SDS011;57622;42.630;23.378;2022-08-06T13:51:52;8.30;;;3.70;;
70233;SDS011;57622;42.630;23.378;2022-08-06T13:54:18;7.43;;;3.35;;
70233;SDS011;57622;42.630;23.378;2022-08-06T13:56:43;7.90;;;3.70;;
70233;SDS011;57622;42.630;23.378;2022-08-06T13:59:09;10.13;;;3.70;;
70233;SDS011;57622;42.630;23.378;2022-08-06T14:01:35;7.50;;;3.67;;
70233;SDS011;57622;42.630;23.378;2022-08-06T14:04:00;7.90;;;3.53;;
70233;SDS011;57622;42.630;23.378;2022-08-06T14:06:26;6.70;;;3.45;;
70233;SDS011;57622;42.630;23.378;2022-08-06T14:08:51;9.57;;;4.07;;
70233;SDS011;57622;42.630;23.378;2022-08-06T14:11:16;8.10;;;3.55;;
70233;SDS011;57622;42.630;23.378;2022-08-06T14:13:42;8.60;;;3.90;;
70233;SDS011;57622;42.630;23.378;2022-08-06T14:16:07;10.48;;;4.05;;
70233;SDS011;57622;42.630;23.378;2022-08-06T14:18:33;7.80;;;4.32;;
70233;SDS011;57622;42.630;23.378;2022-08-06T14:20:58;8.38;;;4.00;;
70233;SDS011;57622;42.630;23.378;2022-08-06T14:23:25;9.43;;;4.38;;
70233;SDS011;57622;42.630;23.378;2022-08-06T14:25:50;8.75;;;4.35;;
70233;SDS011;57622;42.630;23.378;2022-08-06T14:28:15;10.07;;;4.30;;
70233;SDS011;57622;42.630;23.378;2022-08-06T14:30:42;9.23;;;4.47;;
70233;SDS011;57622;42.630;23.378;2022-08-06T14:33:08;7.78;;;4.30;;
70233;SDS011;57622;42.630;23.378;2022-08-06T14:35:34;9.05;;;4.40;;
70233;SDS011;57622;42.630;23.378;2022-08-06T14:38:02;11.55;;;5.38;;
70233;SDS011;57622;42.630;23.378;2022-08-06T14:40:29;12.70;;;7.93;;
70233;SDS011;57622;42.630;23.378;2022-08-06T14:43:13;11.15;;;6.60;;
70233;SDS011;57622;42.630;23.378;2022-08-06T14:45:57;9.20;;;4.78;;
70233;SDS011;57622;42.630;23.378;2022-08-06T14:48:23;12.00;;;6.38;;
70233;SDS011;57622;42.630;23.378;2022-08-06T14:50:48;9.45;;;4.60;;
70233;SDS011;57622;42.630;23.378;2022-08-06T14:53:14;9.85;;;4.68;;
70233;SDS011;57622;42.630;23.378;2022-08-06T14:55:39;10.02;;;5.30;;
70233;SDS011;57622;42.630;23.378;2022-08-06T14:58:05;9.50;;;5.15;;
70233;SDS011;57622;42.630;23.378;2022-08-06T15:00:30;9.80;;;4.70;;
70233;SDS011;57622;42.630;23.378;2022-08-06T15:02:56;8.27;;;4.40;;
70233;SDS011;57622;42.630;23.378;2022-08-06T15:05:21;10.00;;;5.22;;
70233;SDS011;57622;42.630;23.378;2022-08-06T15:07:47;10.20;;;4.90;;
70233;SDS011;57622;42.630;23.378;2022-08-06T15:10:12;9.35;;;4.65;;
70233;SDS011;57622;42.630;23.378;2022-08-06T15:12:38;8.35;;;4.70;;
70233;SDS011;57622;42.630;23.378;2022-08-06T15:15:03;11.75;;;6.78;;
70233;SDS011;57622;42.630;23.378;2022-08-06T15:17:30;14.18;;;7.28;;
70233;SDS011;57622;42.630;23.378;2022-08-06T15:19:55;10.05;;;4.50;;
70233;SDS011;57622;42.630;23.378;2022-08-06T15:22:21;9.70;;;4.32;;
70233;SDS011;57622;42.630;23.378;2022-08-06T15:24:46;9.30;;;4.32;;
70233;SDS011;57622;42.630;23.378;2022-08-06T15:27:12;7.68;;;4.53;;
70233;SDS011;57622;42.630;23.378;2022-08-06T15:29:37;9.68;;;5.35;;
70233;SDS011;57622;42.630;23.378;2022-08-06T15:32:03;9.32;;;4.57;;
70233;SDS011;57622;42.630;23.378;2022-08-06T15:34:29;8.10;;;4.20;;
70233;SDS011;57622;42.630;23.378;2022-08-06T15:36:54;8.75;;;5.18;;
70233;SDS011;57622;42.630;23.378;2022-08-06T15:39:23;8.98;;;4.57;;
70233;SDS011;57622;42.630;23.378;2022-08-06T15:41:48;7.70;;;4.32;;
70233;SDS011;57622;42.630;23.378;2022-08-06T15:44:14;10.77;;;5.38;;
70233;SDS011;57622;42.630;23.378;2022-08-06T15:46:39;10.68;;;4.80;;
70233;SDS011;57622;42.630;23.378;2022-08-06T15:49:05;8.90;;;4.82;;
70233;SDS011;57622;42.630;23.378;2022-08-06T15:51:31;10.68;;;4.47;;
70233;SDS011;57622;42.630;23.378;2022-08-06T15:53:56;8.18;;;4.63;;
70233;SDS011;57622;42.630;23.378;2022-08-06T15:56:23;7.78;;;4.40;;
70233;SDS011;57622;42.630;23.378;2022-08-06T15:58:51;8.15;;;4.28;;
70233;SDS011;57622;42.630;23.378;2022-08-06T16:01:18;9.07;;;4.63;;
70233;SDS011;57622;42.630;23.378;2022-08-06T16:03:43;9.13;;;4.50;;
70233;SDS011;57622;42.630;23.378;2022-08-06T16:06:09;10.10;;;4.50;;
70233;SDS011;57622;42.630;23.378;2022-08-06T16:08:34;9.75;;;4.47;;
70233;SDS011;57622;42.630;23.378;2022-08-06T16:11:00;9.35;;;4.80;;